sensor_id;sensor_type;location;lat;lon;timestamp;P1;durP1;ratioP1;P2;durP2;ratioP2
66175;SDS011;52977;44.816;20.538;2022-12-18T00:01:32;40.53;;;13.77;;
66175;SDS011;52977;44.816;20.538;2022-12-18T00:04:00;41.40;;;14.25;;
66175;SDS011;52977;44.816;20.538;2022-12-18T00:06:28;39.28;;;13.50;;
66175;SDS011;52977;44.816;20.538;2022-12-18T00:08:56;40.72;;;13.85;;
66175;SDS011;52977;44.816;20.538;2022-12-18T00:11:25;36.33;;;12.88;;
66175;SDS011;52977;44.816;20.538;2022-12-18T00:13:53;40.72;;;13.52;;
66175;SDS011;52977;44.816;20.538;2022-12-18T00:16:21;40.53;;;14.35;;
66175;SDS011;52977;44.816;20.538;2022-12-18T00:18:49;40.72;;;13.30;;
66175;SDS011;52977;44.816;20.538;2022-12-18T00:21:16;37.97;;;13.73;;
66175;SDS011;52977;44.816;20.538;2022-12-18T00:23:43;35.67;;;13.50;;
66175;SDS011;52977;44.816;20.538;2022-12-18T00:26:15;29.98;;;10.23;;
66175;SDS011;52977;44.816;20.538;2022-12-18T00:28:44;34.25;;;12.25;;
66175;SDS011;52977;44.816;20.538;2022-12-18T00:31:12;34.97;;;11.75;;
66175;SDS011;52977;44.816;20.538;2022-12-18T00:33:41;30.27;;;11.55;;
66175;SDS011;52977;44.816;20.538;2022-12-18T00:36:27;34.20;;;11.82;;
66175;SDS011;52977;44.816;20.538;2022-12-18T00:38:56;37.60;;;11.90;;
66175;SDS011;52977;44.816;20.538;2022-12-18T00:41:24;34.35;;;11.32;;
66175;SDS011;52977;44.816;20.538;2022-12-18T00:44:09;30.95;;;10.93;;
66175;SDS011;52977;44.816;20.538;2022-12-18T00:46:38;29.83;;;11.35;;
66175;SDS011;52977;44.816;20.538;2022-12-18T00:49:04;32.72;;;11.50;;
66175;SDS011;52977;44.816;20.538;2022-12-18T00:51:30;33.20;;;12.35;;
66175;SDS011;52977;44.816;20.538;2022-12-18T00:53:57;37.03;;;11.15;;
66175;SDS011;52977;44.816;20.538;2022-12-18T00:56:23;37.10;;;11.30;;
66175;SDS011;52977;44.816;20.538;2022-12-18T00:58:51;34.17;;;12.13;;
66175;SDS011;52977;44.816;20.538;2022-12-18T01:01:18;39.55;;;11.75;;
66175;SDS011;52977;44.816;20.538;2022-12-18T01:03:44;36.55;;;11.70;;
66175;SDS011;52977;44.816;20.538;2022-12-18T01:06:15;39.22;;;11.40;;
66175;SDS011;52977;44.816;20.538;2022-12-18T01:08:44;36.95;;;11.60;;
66175;SDS011;52977;44.816;20.538;2022-12-18T01:11:15;30.23;;;11.02;;
66175;SDS011;52977;44.816;20.538;2022-12-18T01:13:43;37.38;;;11.45;;
66175;SDS011;52977;44.816;20.538;2022-12-18T01:16:13;35.97;;;12.70;;
66175;SDS011;52977;44.816;20.538;2022-12-18T01:18:42;33.28;;;11.93;;
66175;SDS011;52977;44.816;20.538;2022-12-18T01:21:12;34.45;;;12.10;;
66175;SDS011;52977;44.816;20.538;2022-12-18T01:23:41;36.97;;;11.38;;
66175;SDS011;52977;44.816;20.538;2022-12-18T01:26:14;27.65;;;9.98;;
66175;SDS011;52977;44.816;20.538;2022-12-18T01:28:42;33.25;;;11.18;;
66175;SDS011;52977;44.816;20.538;2022-12-18T01:31:19;33.75;;;11.98;;
66175;SDS011;52977;44.816;20.538;2022-12-18T01:33:47;36.97;;;11.75;;
66175;SDS011;52977;44.816;20.538;2022-12-18T01:36:15;32.75;;;11.52;;
66175;SDS011;52977;44.816;20.538;2022-12-18T01:38:46;34.35;;;12.23;;
66175;SDS011;52977;44.816;20.538;2022-12-18T01:41:14;35.00;;;10.98;;
66175;SDS011;52977;44.816;20.538;2022-12-18T01:43:43;35.50;;;12.52;;
66175;SDS011;52977;44.816;20.538;2022-12-18T01:46:21;37.17;;;10.82;;
66175;SDS011;52977;44.816;20.538;2022-12-18T01:49:00;32.80;;;11.27;;
66175;SDS011;52977;44.816;20.538;2022-12-18T01:51:27;33.22;;;11.52;;
66175;SDS011;52977;44.816;20.538;2022-12-18T01:53:56;33.25;;;12.15;;
66175;SDS011;52977;44.816;20.538;2022-12-18T01:56:23;33.15;;;11.50;;
66175;SDS011;52977;44.816;20.538;2022-12-18T01:58:56;33.75;;;11.35;;
66175;SDS011;52977;44.816;20.538;2022-12-18T02:01:28;33.92;;;12.02;;
66175;SDS011;52977;44.816;20.538;2022-12-18T02:07:35;35.67;;;12.57;;
66175;SDS011;52977;44.816;20.538;2022-12-18T02:12:24;37.53;;;11.60;;
66175;SDS011;52977;44.816;20.538;2022-12-18T02:28:36;31.92;;;10.98;;
66175;SDS011;52977;44.816;20.538;2022-12-18T02:31:11;29.77;;;11.15;;
66175;SDS011;52977;44.816;20.538;2022-12-18T02:33:40;30.85;;;11.15;;
66175;SDS011;52977;44.816;20.538;2022-12-18T02:36:09;33.88;;;11.40;;
66175;SDS011;52977;44.816;20.538;2022-12-18T02:38:38;28.25;;;10.35;;
66175;SDS011;52977;44.816;20.538;2022-12-18T02:41:10;31.63;;;9.90;;
66175;SDS011;52977;44.816;20.538;2022-12-18T02:43:39;31.70;;;11.27;;
66175;SDS011;52977;44.816;20.538;2022-12-18T02:46:26;31.08;;;10.93;;
66175;SDS011;52977;44.816;20.538;2022-12-18T02:49:04;31.02;;;10.30;;
66175;SDS011;52977;44.816;20.538;2022-12-18T02:52:01;34.80;;;12.07;;
66175;SDS011;52977;44.816;20.538;2022-12-18T02:54:40;33.88;;;11.70;;
66175;SDS011;52977;44.816;20.538;2022-12-18T03:05:36;29.02;;;10.98;;
66175;SDS011;52977;44.816;20.538;2022-12-18T03:08:10;32.75;;;10.73;;
66175;SDS011;52977;44.816;20.538;2022-12-18T03:11:06;31.63;;;10.32;;
66175;SDS011;52977;44.816;20.538;2022-12-18T03:16:14;29.27;;;10.35;;
66175;SDS011;52977;44.816;20.538;2022-12-18T03:18:56;27.77;;;10.57;;
66175;SDS011;52977;44.816;20.538;2022-12-18T03:21:32;35.83;;;12.20;;
66175;SDS011;52977;44.816;20.538;2022-12-18T03:24:03;34.55;;;11.55;;
66175;SDS011;52977;44.816;20.538;2022-12-18T03:26:33;32.42;;;11.25;;
66175;SDS011;52977;44.816;20.538;2022-12-18T03:29:06;32.30;;;10.18;;
66175;SDS011;52977;44.816;20.538;2022-12-18T03:31:35;25.65;;;9.98;;
66175;SDS011;52977;44.816;20.538;2022-12-18T03:34:05;30.23;;;10.98;;
66175;SDS011;52977;44.816;20.538;2022-12-18T03:36:42;35.17;;;11.48;;
66175;SDS011;52977;44.816;20.538;2022-12-18T03:39:10;32.60;;;11.35;;
66175;SDS011;52977;44.816;20.538;2022-12-18T03:42:13;29.13;;;11.40;;
66175;SDS011;52977;44.816;20.538;2022-12-18T03:44:39;26.83;;;9.55;;
66175;SDS011;52977;44.816;20.538;2022-12-18T03:47:13;30.20;;;10.52;;
66175;SDS011;52977;44.816;20.538;2022-12-18T03:49:48;31.75;;;11.25;;
66175;SDS011;52977;44.816;20.538;2022-12-18T03:52:34;33.90;;;10.45;;
66175;SDS011;52977;44.816;20.538;2022-12-18T03:55:11;31.02;;;10.30;;
66175;SDS011;52977;44.816;20.538;2022-12-18T03:57:39;27.40;;;9.55;;
66175;SDS011;52977;44.816;20.538;2022-12-18T04:00:09;30.67;;;10.35;;
66175;SDS011;52977;44.816;20.538;2022-12-18T04:02:54;32.53;;;11.25;;
66175;SDS011;52977;44.816;20.538;2022-12-18T04:05:30;35.28;;;11.57;;
66175;SDS011;52977;44.816;20.538;2022-12-18T04:08:00;32.65;;;10.82;;
66175;SDS011;52977;44.816;20.538;2022-12-18T04:10:27;31.58;;;11.55;;
66175;SDS011;52977;44.816;20.538;2022-12-18T04:12:57;26.48;;;10.15;;
66175;SDS011;52977;44.816;20.538;2022-12-18T04:15:24;33.37;;;10.60;;
66175;SDS011;52977;44.816;20.538;2022-12-18T04:17:51;31.67;;;10.40;;
66175;SDS011;52977;44.816;20.538;2022-12-18T04:20:21;32.75;;;11.68;;
66175;SDS011;52977;44.816;20.538;2022-12-18T04:22:47;30.90;;;11.90;;
66175;SDS011;52977;44.816;20.538;2022-12-18T04:25:13;33.05;;;11.30;;
66175;SDS011;52977;44.816;20.538;2022-12-18T04:27:52;31.63;;;10.98;;
66175;SDS011;52977;44.816;20.538;2022-12-18T04:30:18;31.45;;;11.60;;
66175;SDS011;52977;44.816;20.538;2022-12-18T04:32:45;36.55;;;12.43;;
66175;SDS011;52977;44.816;20.538;2022-12-18T04:35:11;33.10;;;12.10;;
66175;SDS011;52977;44.816;20.538;2022-12-18T04:37:40;34.88;;;12.40;;
66175;SDS011;52977;44.816;20.538;2022-12-18T04:40:07;31.70;;;11.30;;
66175;SDS011;52977;44.816;20.538;2022-12-18T04:42:39;36.10;;;12.45;;
66175;SDS011;52977;44.816;20.538;2022-12-18T04:45:06;31.38;;;11.50;;
66175;SDS011;52977;44.816;20.538;2022-12-18T04:47:33;30.58;;;11.00;;
66175;SDS011;52977;44.816;20.538;2022-12-18T04:50:01;38.30;;;12.27;;
66175;SDS011;52977;44.816;20.538;2022-12-18T04:52:33;30.10;;;9.95;;
66175;SDS011;52977;44.816;20.538;2022-12-18T04:54:59;33.25;;;11.98;;
66175;SDS011;52977;44.816;20.538;2022-12-18T04:57:25;34.13;;;12.25;;
66175;SDS011;52977;44.816;20.538;2022-12-18T04:59:51;32.60;;;12.07;;
66175;SDS011;52977;44.816;20.538;2022-12-18T05:02:19;34.03;;;11.57;;
66175;SDS011;52977;44.816;20.538;2022-12-18T05:04:45;28.05;;;10.70;;
66175;SDS011;52977;44.816;20.538;2022-12-18T05:07:11;37.08;;;12.18;;
66175;SDS011;52977;44.816;20.538;2022-12-18T05:09:37;32.85;;;12.48;;
66175;SDS011;52977;44.816;20.538;2022-12-18T05:12:03;32.83;;;11.68;;
66175;SDS011;52977;44.816;20.538;2022-12-18T05:14:29;35.92;;;12.05;;
66175;SDS011;52977;44.816;20.538;2022-12-18T05:16:56;41.67;;;11.75;;
66175;SDS011;52977;44.816;20.538;2022-12-18T05:19:22;35.03;;;11.25;;
66175;SDS011;52977;44.816;20.538;2022-12-18T05:21:48;33.58;;;11.68;;
66175;SDS011;52977;44.816;20.538;2022-12-18T05:24:14;35.20;;;11.90;;
66175;SDS011;52977;44.816;20.538;2022-12-18T05:26:40;33.58;;;11.30;;
66175;SDS011;52977;44.816;20.538;2022-12-18T05:29:07;32.33;;;11.20;;
66175;SDS011;52977;44.816;20.538;2022-12-18T05:31:33;32.40;;;11.75;;
66175;SDS011;52977;44.816;20.538;2022-12-18T05:33:59;30.83;;;11.07;;
66175;SDS011;52977;44.816;20.538;2022-12-18T05:36:25;30.90;;;12.45;;
66175;SDS011;52977;44.816;20.538;2022-12-18T05:38:51;32.03;;;10.65;;
66175;SDS011;52977;44.816;20.538;2022-12-18T05:41:17;37.58;;;11.88;;
66175;SDS011;52977;44.816;20.538;2022-12-18T05:43:43;37.25;;;12.82;;
66175;SDS011;52977;44.816;20.538;2022-12-18T05:46:11;35.60;;;12.00;;
66175;SDS011;52977;44.816;20.538;2022-12-18T05:48:39;32.63;;;11.95;;
66175;SDS011;52977;44.816;20.538;2022-12-18T05:54:28;33.65;;;11.73;;
66175;SDS011;52977;44.816;20.538;2022-12-18T05:56:54;33.80;;;12.80;;
66175;SDS011;52977;44.816;20.538;2022-12-18T05:59:20;35.10;;;12.88;;
66175;SDS011;52977;44.816;20.538;2022-12-18T06:01:47;37.33;;;13.15;;
66175;SDS011;52977;44.816;20.538;2022-12-18T06:04:13;38.83;;;12.85;;
66175;SDS011;52977;44.816;20.538;2022-12-18T06:06:39;36.08;;;12.48;;
66175;SDS011;52977;44.816;20.538;2022-12-18T06:09:05;31.52;;;11.45;;
66175;SDS011;52977;44.816;20.538;2022-12-18T06:11:34;38.88;;;13.07;;
66175;SDS011;52977;44.816;20.538;2022-12-18T06:14:01;32.30;;;11.65;;
66175;SDS011;52977;44.816;20.538;2022-12-18T06:16:29;32.22;;;10.82;;
66175;SDS011;52977;44.816;20.538;2022-12-18T06:18:56;32.95;;;12.48;;
66175;SDS011;52977;44.816;20.538;2022-12-18T06:21:26;38.35;;;12.75;;
66175;SDS011;52977;44.816;20.538;2022-12-18T06:23:53;32.97;;;13.02;;
66175;SDS011;52977;44.816;20.538;2022-12-18T06:26:19;34.78;;;12.48;;
66175;SDS011;52977;44.816;20.538;2022-12-18T06:28:46;37.97;;;12.52;;
66175;SDS011;52977;44.816;20.538;2022-12-18T06:31:12;30.80;;;12.40;;
66175;SDS011;52977;44.816;20.538;2022-12-18T06:33:38;37.33;;;12.38;;
66175;SDS011;52977;44.816;20.538;2022-12-18T06:36:06;36.38;;;13.15;;
66175;SDS011;52977;44.816;20.538;2022-12-18T06:38:35;32.25;;;12.68;;
66175;SDS011;52977;44.816;20.538;2022-12-18T06:41:09;39.17;;;12.85;;
66175;SDS011;52977;44.816;20.538;2022-12-18T06:43:40;39.33;;;14.13;;
66175;SDS011;52977;44.816;20.538;2022-12-18T06:46:07;40.75;;;13.95;;
66175;SDS011;52977;44.816;20.538;2022-12-18T06:48:34;34.15;;;12.20;;
66175;SDS011;52977;44.816;20.538;2022-12-18T06:51:00;38.90;;;13.80;;
66175;SDS011;52977;44.816;20.538;2022-12-18T06:53:27;34.25;;;11.63;;
66175;SDS011;52977;44.816;20.538;2022-12-18T06:56:03;33.63;;;12.07;;
66175;SDS011;52977;44.816;20.538;2022-12-18T06:58:30;44.38;;;14.50;;
66175;SDS011;52977;44.816;20.538;2022-12-18T07:01:00;40.13;;;12.85;;
66175;SDS011;52977;44.816;20.538;2022-12-18T07:03:27;37.63;;;13.52;;
66175;SDS011;52977;44.816;20.538;2022-12-18T07:05:53;42.65;;;13.75;;
66175;SDS011;52977;44.816;20.538;2022-12-18T07:08:20;41.22;;;13.38;;
66175;SDS011;52977;44.816;20.538;2022-12-18T07:10:46;38.83;;;12.98;;
66175;SDS011;52977;44.816;20.538;2022-12-18T07:13:15;34.97;;;13.38;;
66175;SDS011;52977;44.816;20.538;2022-12-18T07:15:42;35.03;;;13.18;;
66175;SDS011;52977;44.816;20.538;2022-12-18T07:18:09;35.95;;;12.27;;
66175;SDS011;52977;44.816;20.538;2022-12-18T07:20:35;38.90;;;13.02;;
66175;SDS011;52977;44.816;20.538;2022-12-18T07:23:02;43.90;;;14.90;;
66175;SDS011;52977;44.816;20.538;2022-12-18T07:25:29;36.80;;;13.07;;
66175;SDS011;52977;44.816;20.538;2022-12-18T07:27:55;36.78;;;13.27;;
66175;SDS011;52977;44.816;20.538;2022-12-18T07:30:21;35.70;;;12.98;;
66175;SDS011;52977;44.816;20.538;2022-12-18T07:32:48;35.08;;;13.88;;
66175;SDS011;52977;44.816;20.538;2022-12-18T07:35:14;40.33;;;14.18;;
66175;SDS011;52977;44.816;20.538;2022-12-18T07:37:40;52.03;;;19.05;;
66175;SDS011;52977;44.816;20.538;2022-12-18T07:40:06;37.67;;;13.35;;
66175;SDS011;52977;44.816;20.538;2022-12-18T07:42:33;38.40;;;13.70;;
66175;SDS011;52977;44.816;20.538;2022-12-18T07:45:00;42.00;;;12.88;;
66175;SDS011;52977;44.816;20.538;2022-12-18T07:47:28;37.15;;;12.77;;
66175;SDS011;52977;44.816;20.538;2022-12-18T07:49:58;39.58;;;12.95;;
66175;SDS011;52977;44.816;20.538;2022-12-18T07:52:24;36.72;;;13.02;;
66175;SDS011;52977;44.816;20.538;2022-12-18T07:54:50;47.97;;;13.32;;
66175;SDS011;52977;44.816;20.538;2022-12-18T07:57:17;43.67;;;13.70;;
66175;SDS011;52977;44.816;20.538;2022-12-18T07:59:43;40.83;;;14.15;;
66175;SDS011;52977;44.816;20.538;2022-12-18T08:02:09;44.72;;;14.50;;
66175;SDS011;52977;44.816;20.538;2022-12-18T08:04:35;39.28;;;13.27;;
66175;SDS011;52977;44.816;20.538;2022-12-18T08:07:02;40.85;;;13.20;;
66175;SDS011;52977;44.816;20.538;2022-12-18T08:09:28;36.40;;;13.02;;
66175;SDS011;52977;44.816;20.538;2022-12-18T08:11:54;41.42;;;14.18;;
66175;SDS011;52977;44.816;20.538;2022-12-18T08:14:20;39.85;;;12.30;;
66175;SDS011;52977;44.816;20.538;2022-12-18T08:16:46;37.00;;;13.35;;
66175;SDS011;52977;44.816;20.538;2022-12-18T08:19:13;41.67;;;12.95;;
66175;SDS011;52977;44.816;20.538;2022-12-18T08:21:39;49.85;;;14.90;;
66175;SDS011;52977;44.816;20.538;2022-12-18T08:24:05;41.95;;;13.18;;
66175;SDS011;52977;44.816;20.538;2022-12-18T08:26:32;35.95;;;11.85;;
66175;SDS011;52977;44.816;20.538;2022-12-18T08:28:58;43.08;;;14.00;;
66175;SDS011;52977;44.816;20.538;2022-12-18T08:31:26;45.17;;;14.52;;
66175;SDS011;52977;44.816;20.538;2022-12-18T08:33:54;36.83;;;12.55;;
66175;SDS011;52977;44.816;20.538;2022-12-18T08:36:21;37.72;;;14.15;;
66175;SDS011;52977;44.816;20.538;2022-12-18T08:38:48;43.47;;;14.90;;
66175;SDS011;52977;44.816;20.538;2022-12-18T08:41:15;41.13;;;14.23;;
66175;SDS011;52977;44.816;20.538;2022-12-18T08:43:42;46.03;;;14.45;;
66175;SDS011;52977;44.816;20.538;2022-12-18T08:46:31;38.95;;;14.00;;
66175;SDS011;52977;44.816;20.538;2022-12-18T08:48:59;37.97;;;14.48;;
66175;SDS011;52977;44.816;20.538;2022-12-18T08:51:25;46.22;;;14.45;;
66175;SDS011;52977;44.816;20.538;2022-12-18T08:53:52;43.22;;;14.20;;
66175;SDS011;52977;44.816;20.538;2022-12-18T08:56:18;50.42;;;14.95;;
66175;SDS011;52977;44.816;20.538;2022-12-18T08:58:45;49.55;;;15.23;;
66175;SDS011;52977;44.816;20.538;2022-12-18T09:01:12;43.70;;;15.35;;
66175;SDS011;52977;44.816;20.538;2022-12-18T09:03:39;42.05;;;14.40;;
66175;SDS011;52977;44.816;20.538;2022-12-18T09:06:06;43.58;;;15.60;;
66175;SDS011;52977;44.816;20.538;2022-12-18T09:08:35;43.45;;;14.13;;
66175;SDS011;52977;44.816;20.538;2022-12-18T09:11:04;44.90;;;14.65;;
66175;SDS011;52977;44.816;20.538;2022-12-18T09:13:38;43.17;;;15.32;;
66175;SDS011;52977;44.816;20.538;2022-12-18T09:16:04;45.78;;;14.82;;
66175;SDS011;52977;44.816;20.538;2022-12-18T09:18:30;43.22;;;15.52;;
66175;SDS011;52977;44.816;20.538;2022-12-18T09:20:57;44.15;;;14.93;;
66175;SDS011;52977;44.816;20.538;2022-12-18T09:23:23;49.95;;;15.15;;
66175;SDS011;52977;44.816;20.538;2022-12-18T09:25:49;49.80;;;16.83;;
66175;SDS011;52977;44.816;20.538;2022-12-18T09:28:16;46.80;;;16.55;;
66175;SDS011;52977;44.816;20.538;2022-12-18T09:30:45;49.95;;;17.33;;
66175;SDS011;52977;44.816;20.538;2022-12-18T09:33:12;45.88;;;17.58;;
66175;SDS011;52977;44.816;20.538;2022-12-18T09:35:39;48.30;;;17.23;;
66175;SDS011;52977;44.816;20.538;2022-12-18T09:38:07;48.42;;;15.05;;
66175;SDS011;52977;44.816;20.538;2022-12-18T09:40:36;50.13;;;17.25;;
66175;SDS011;52977;44.816;20.538;2022-12-18T09:43:09;43.42;;;15.77;;
66175;SDS011;52977;44.816;20.538;2022-12-18T09:45:46;44.45;;;16.35;;
66175;SDS011;52977;44.816;20.538;2022-12-18T09:48:21;41.75;;;14.77;;
66175;SDS011;52977;44.816;20.538;2022-12-18T09:50:55;44.75;;;15.75;;
66175;SDS011;52977;44.816;20.538;2022-12-18T09:53:27;54.22;;;16.95;;
66175;SDS011;52977;44.816;20.538;2022-12-18T09:55:58;39.80;;;14.45;;
66175;SDS011;52977;44.816;20.538;2022-12-18T09:58:41;55.28;;;15.90;;
66175;SDS011;52977;44.816;20.538;2022-12-18T10:01:14;46.75;;;14.98;;
66175;SDS011;52977;44.816;20.538;2022-12-18T10:03:44;46.35;;;16.58;;
66175;SDS011;52977;44.816;20.538;2022-12-18T10:17:37;49.70;;;16.17;;
66175;SDS011;52977;44.816;20.538;2022-12-18T10:20:10;48.08;;;16.52;;
66175;SDS011;52977;44.816;20.538;2022-12-18T10:22:43;44.33;;;15.15;;
66175;SDS011;52977;44.816;20.538;2022-12-18T10:25:28;41.58;;;14.60;;
66175;SDS011;52977;44.816;20.538;2022-12-18T10:28:12;51.65;;;15.85;;
66175;SDS011;52977;44.816;20.538;2022-12-18T10:30:40;45.20;;;14.48;;
66175;SDS011;52977;44.816;20.538;2022-12-18T10:33:18;45.22;;;15.90;;
66175;SDS011;52977;44.816;20.538;2022-12-18T10:35:48;43.40;;;14.60;;
66175;SDS011;52977;44.816;20.538;2022-12-18T10:46:01;52.13;;;17.42;;
66175;SDS011;52977;44.816;20.538;2022-12-18T10:48:31;47.33;;;17.08;;
66175;SDS011;52977;44.816;20.538;2022-12-18T10:51:05;50.13;;;16.95;;
66175;SDS011;52977;44.816;20.538;2022-12-18T10:53:34;50.10;;;17.13;;
66175;SDS011;52977;44.816;20.538;2022-12-18T10:56:03;52.35;;;17.02;;
66175;SDS011;52977;44.816;20.538;2022-12-18T10:58:32;47.47;;;14.93;;
66175;SDS011;52977;44.816;20.538;2022-12-18T11:01:05;45.95;;;16.67;;
66175;SDS011;52977;44.816;20.538;2022-12-18T11:03:36;47.53;;;16.60;;
66175;SDS011;52977;44.816;20.538;2022-12-18T11:06:15;51.15;;;16.75;;
66175;SDS011;52977;44.816;20.538;2022-12-18T11:08:43;52.05;;;17.25;;
66175;SDS011;52977;44.816;20.538;2022-12-18T11:11:22;53.63;;;16.60;;
66175;SDS011;52977;44.816;20.538;2022-12-18T11:14:01;50.85;;;17.50;;
66175;SDS011;52977;44.816;20.538;2022-12-18T11:16:32;48.28;;;15.70;;
66175;SDS011;52977;44.816;20.538;2022-12-18T11:19:26;49.33;;;16.50;;
66175;SDS011;52977;44.816;20.538;2022-12-18T11:21:54;47.13;;;16.08;;
66175;SDS011;52977;44.816;20.538;2022-12-18T11:27:06;52.17;;;16.33;;
66175;SDS011;52977;44.816;20.538;2022-12-18T11:29:44;46.63;;;15.23;;
66175;SDS011;52977;44.816;20.538;2022-12-18T11:34:59;48.83;;;16.88;;
66175;SDS011;52977;44.816;20.538;2022-12-18T11:37:28;48.22;;;16.25;;
66175;SDS011;52977;44.816;20.538;2022-12-18T11:40:05;51.35;;;17.30;;
66175;SDS011;52977;44.816;20.538;2022-12-18T11:50:16;53.85;;;17.25;;
66175;SDS011;52977;44.816;20.538;2022-12-18T11:52:44;48.08;;;16.15;;
66175;SDS011;52977;44.816;20.538;2022-12-18T11:55:12;46.20;;;16.90;;
66175;SDS011;52977;44.816;20.538;2022-12-18T12:00:21;44.42;;;16.42;;
66175;SDS011;52977;44.816;20.538;2022-12-18T12:02:56;45.95;;;;;
66175;SDS011;52977;44.816;20.538;2022-12-18T12:05:51;44.67;;;15.85;;
66175;SDS011;52977;44.816;20.538;2022-12-18T12:16:37;51.55;;;18.05;;
66175;SDS011;52977;44.816;20.538;2022-12-18T12:19:35;52.72;;;17.48;;
66175;SDS011;52977;44.816;20.538;2022-12-18T12:28:12;54.72;;;18.55;;
66175;SDS011;52977;44.816;20.538;2022-12-18T12:39:37;47.67;;;16.95;;
66175;SDS011;52977;44.816;20.538;2022-12-18T12:42:29;52.03;;;18.07;;
66175;SDS011;52977;44.816;20.538;2022-12-18T12:51:01;55.22;;;17.88;;
66175;SDS011;52977;44.816;20.538;2022-12-18T12:53:34;49.00;;;16.23;;
66175;SDS011;52977;44.816;20.538;2022-12-18T12:56:03;45.15;;;16.02;;
66175;SDS011;52977;44.816;20.538;2022-12-18T13:06:08;49.47;;;16.30;;
66175;SDS011;52977;44.816;20.538;2022-12-18T13:08:58;49.88;;;16.17;;
66175;SDS011;52977;44.816;20.538;2022-12-18T13:11:47;54.42;;;16.85;;
66175;SDS011;52977;44.816;20.538;2022-12-18T13:14:34;45.28;;;15.70;;
66175;SDS011;52977;44.816;20.538;2022-12-18T13:19:48;51.65;;;16.38;;
66175;SDS011;52977;44.816;20.538;2022-12-18T13:22:23;48.08;;;15.02;;
66175;SDS011;52977;44.816;20.538;2022-12-18T13:24:54;43.55;;;15.68;;
66175;SDS011;52977;44.816;20.538;2022-12-18T13:35:41;50.75;;;15.73;;
66175;SDS011;52977;44.816;20.538;2022-12-18T13:38:25;51.50;;;15.98;;
66175;SDS011;52977;44.816;20.538;2022-12-18T13:41:02;42.03;;;14.93;;
66175;SDS011;52977;44.816;20.538;2022-12-18T13:43:31;46.47;;;16.27;;
66175;SDS011;52977;44.816;20.538;2022-12-18T13:51:22;42.30;;;14.32;;
66175;SDS011;52977;44.816;20.538;2022-12-18T13:54:00;49.03;;;15.18;;
66175;SDS011;52977;44.816;20.538;2022-12-18T13:56:29;46.85;;;15.90;;
66175;SDS011;52977;44.816;20.538;2022-12-18T14:01:55;48.30;;;16.27;;
66175;SDS011;52977;44.816;20.538;2022-12-18T14:04:25;48.35;;;15.50;;
66175;SDS011;52977;44.816;20.538;2022-12-18T14:07:01;49.22;;;16.05;;
66175;SDS011;52977;44.816;20.538;2022-12-18T14:09:31;45.00;;;16.33;;
66175;SDS011;52977;44.816;20.538;2022-12-18T14:12:01;51.03;;;15.68;;
66175;SDS011;52977;44.816;20.538;2022-12-18T14:14:47;49.60;;;16.23;;
66175;SDS011;52977;44.816;20.538;2022-12-18T14:17:16;49.30;;;16.40;;
66175;SDS011;52977;44.816;20.538;2022-12-18T14:19:48;50.42;;;17.67;;
66175;SDS011;52977;44.816;20.538;2022-12-18T14:22:20;44.55;;;15.90;;
66175;SDS011;52977;44.816;20.538;2022-12-18T14:25:13;46.10;;;14.82;;
66175;SDS011;52977;44.816;20.538;2022-12-18T14:27:47;49.45;;;16.27;;
66175;SDS011;52977;44.816;20.538;2022-12-18T14:30:24;52.42;;;16.83;;
66175;SDS011;52977;44.816;20.538;2022-12-18T14:33:01;56.42;;;17.95;;
66175;SDS011;52977;44.816;20.538;2022-12-18T14:35:34;48.35;;;16.92;;
66175;SDS011;52977;44.816;20.538;2022-12-18T14:40:41;53.95;;;17.67;;
66175;SDS011;52977;44.816;20.538;2022-12-18T14:43:10;51.95;;;17.92;;
66175;SDS011;52977;44.816;20.538;2022-12-18T14:45:41;55.13;;;18.38;;
66175;SDS011;52977;44.816;20.538;2022-12-18T14:48:11;50.83;;;17.88;;
66175;SDS011;52977;44.816;20.538;2022-12-18T14:50:42;59.35;;;20.02;;
66175;SDS011;52977;44.816;20.538;2022-12-18T14:53:23;58.28;;;19.08;;
66175;SDS011;52977;44.816;20.538;2022-12-18T14:55:55;58.75;;;18.42;;
66175;SDS011;52977;44.816;20.538;2022-12-18T14:58:21;54.20;;;17.80;;
66175;SDS011;52977;44.816;20.538;2022-12-18T15:00:48;58.03;;;18.48;;
66175;SDS011;52977;44.816;20.538;2022-12-18T15:03:17;51.15;;;18.27;;
66175;SDS011;52977;44.816;20.538;2022-12-18T15:05:46;61.05;;;19.63;;
66175;SDS011;52977;44.816;20.538;2022-12-18T15:08:34;61.97;;;19.77;;
66175;SDS011;52977;44.816;20.538;2022-12-18T15:11:03;59.35;;;21.23;;
66175;SDS011;52977;44.816;20.538;2022-12-18T15:13:29;57.83;;;19.67;;
66175;SDS011;52977;44.816;20.538;2022-12-18T15:15:57;65.03;;;20.58;;
66175;SDS011;52977;44.816;20.538;2022-12-18T15:18:33;56.15;;;18.65;;
66175;SDS011;52977;44.816;20.538;2022-12-18T15:21:07;63.70;;;19.45;;
66175;SDS011;52977;44.816;20.538;2022-12-18T15:26:15;56.47;;;18.05;;
66175;SDS011;52977;44.816;20.538;2022-12-18T15:31:23;56.60;;;19.33;;
66175;SDS011;52977;44.816;20.538;2022-12-18T15:36:36;60.80;;;19.48;;
66175;SDS011;52977;44.816;20.538;2022-12-18T15:39:02;48.20;;;17.50;;
66175;SDS011;52977;44.816;20.538;2022-12-18T15:41:30;57.63;;;18.90;;
66175;SDS011;52977;44.816;20.538;2022-12-18T15:44:00;59.17;;;21.17;;
66175;SDS011;52977;44.816;20.538;2022-12-18T15:46:26;60.20;;;20.60;;
66175;SDS011;52977;44.816;20.538;2022-12-18T15:48:54;53.83;;;19.00;;
66175;SDS011;52977;44.816;20.538;2022-12-18T15:51:22;56.45;;;19.02;;
66175;SDS011;52977;44.816;20.538;2022-12-18T15:53:54;55.10;;;18.08;;
66175;SDS011;52977;44.816;20.538;2022-12-18T15:56:22;60.63;;;18.40;;
66175;SDS011;52977;44.816;20.538;2022-12-18T15:59:11;61.25;;;19.88;;
66175;SDS011;52977;44.816;20.538;2022-12-18T16:01:39;59.97;;;19.58;;
66175;SDS011;52977;44.816;20.538;2022-12-18T16:04:06;67.82;;;20.70;;
66175;SDS011;52977;44.816;20.538;2022-12-18T16:06:34;64.68;;;21.15;;
66175;SDS011;52977;44.816;20.538;2022-12-18T16:09:00;56.58;;;21.10;;
66175;SDS011;52977;44.816;20.538;2022-12-18T16:11:27;59.03;;;20.80;;
66175;SDS011;52977;44.816;20.538;2022-12-18T16:14:19;56.53;;;18.30;;
66175;SDS011;52977;44.816;20.538;2022-12-18T16:16:57;61.88;;;21.40;;
66175;SDS011;52977;44.816;20.538;2022-12-18T16:19:28;60.10;;;19.27;;
66175;SDS011;52977;44.816;20.538;2022-12-18T16:21:55;58.90;;;19.85;;
66175;SDS011;52977;44.816;20.538;2022-12-18T16:24:24;63.55;;;20.85;;
66175;SDS011;52977;44.816;20.538;2022-12-18T16:26:52;60.53;;;20.92;;
66175;SDS011;52977;44.816;20.538;2022-12-18T16:29:19;62.45;;;21.92;;
66175;SDS011;52977;44.816;20.538;2022-12-18T16:31:55;69.43;;;22.45;;
66175;SDS011;52977;44.816;20.538;2022-12-18T16:34:24;62.03;;;20.98;;
66175;SDS011;52977;44.816;20.538;2022-12-18T16:36:56;68.57;;;21.75;;
66175;SDS011;52977;44.816;20.538;2022-12-18T16:39:25;60.60;;;19.73;;
66175;SDS011;52977;44.816;20.538;2022-12-18T16:41:51;67.50;;;20.15;;
66175;SDS011;52977;44.816;20.538;2022-12-18T16:44:18;53.85;;;18.67;;